Latest Coastal Weather Observations for Point Perpendicular

IDN60701

Issued at 8:32 am EST Sunday 25 September 2022 (issued every 10 minutes, with the page automatically refreshed every 10 minutes)

About coastal observations | Map of coastal stations | Coastal observations for NSW | Marine services | Other Formats
Station Details ID: 068151 Name: POINT PERPENDICULAR AWS Lat: -35.09 Lon: 150.80 Height: 85.0 m
Data from the previous 72 hours. | See also: Recent months at Point Perpendicular
Date/Time
EST
Wind Sea
Height
m
Swell Vis
km
Cloud Weather Temp
°C
Press
MSL
hPa
Rain since
9am
mm
Dir  Spd
kts
Gust
kts
Height
m
Period
s
Dir
25/08:30am WNW 6 9 - - - - - - - 13.7 1015.8 0.0
25/08:00am WNW 5 10 - - - - - - - 13.1 1015.6 0.0
25/07:30am WNW 4 9 - - - - - - - 12.7 1015.5 0.0
25/07:00am WNW 5 9 - - - - - - - 12.1 1015.4 0.0
25/06:30am WNW 5 9 - - - - - - - 11.6 1015.1 0.0
25/06:00am NW 4 6 - - - - - - - 11.3 1014.7 0.0
25/05:30am WNW 5 7 - - - - - - - 11.4 1014.5 0.0
25/05:00am WNW 5 7 - - - - - - - 11.6 1014.2 0.0
25/04:30am WNW 5 7 - - - - - - - 11.4 1014.0 0.0
25/04:00am NW 6 6 - - - - - - - 11.4 1014.0 0.0
25/03:30am NW 6 7 - - - - - - - 11.7 1013.8 0.0
25/03:00am NW 5 6 - - - - - - - 11.8 1013.9 0.0
25/02:30am NW 4 5 - - - - - - - 12.2 1013.9 0.0
25/02:00am NW 6 7 - - - - - - - 12.1 1014.2 0.0
25/01:30am WNW 3 5 - - - - - - - 12.1 1014.2 0.0
25/01:00am NW 4 5 - - - - - - - 13.1 1014.3 0.0
25/12:30am WNW 3 4 - - - - - - - 13.0 1014.3 0.0
25/12:00am NW 2 3 - - - - - - - 13.5 1014.4 0.0
 
Date/Time
EST
Wind Sea
Height
m
Swell Vis
km
Cloud Weather Temp
°C
Press
MSL
hPa
Rain since
9am
mm
Dir  Spd
kts
Gust
kts
Height
m
Period
s
Dir
24/11:30pm WNW 2 4 - - - - - - - 13.4 1014.4 0.0
24/11:00pm WNW 3 4 - - - - - - - 13.1 1014.3 0.0
24/10:30pm WSW 3 4 - - - - - - - 13.8 1014.3 0.0
24/10:00pm W 1 2 - - - - - - - 13.3 1013.9 0.0
24/09:30pm WNW 3 4 - - - - - - - 13.3 1014.1 0.0
24/09:00pm WNW 3 5 - - - - - - - 13.4 1014.2 0.0
24/08:30pm W 1 2 - - - - - - - 13.3 1014.1 0.0
24/08:00pm W 1 2 - - - - - - - 13.6 1013.9 0.0
24/07:30pm WNW 3 8 - - - - - - - 13.7 1013.6 0.0
24/07:00pm WNW 1 3 - - - - - - - 14.5 1013.0 0.0
24/06:30pm W 2 4 - - - - - - - 14.4 1012.6 0.0
24/06:00pm WNW 2 3 - - - - - - - 15.3 1012.5 0.0
24/05:30pm SSE 1 3 - - - - - - - 15.5 1011.9 0.0
24/05:00pm SSE 3 5 - - - - - - - 15.7 1011.5 0.0
24/04:30pm SSE 6 8 - - - - - - - 16.0 1010.5 0.0
24/04:00pm SSE 7 11 - - - - - - - 16.7 1009.8 0.0
24/03:30pm SSE 8 11 - - - - - - - 17.1 1009.8 0.0
24/03:00pm S 8 11 - - - - - - - 17.1 1009.7 0.0
24/02:30pm S 9 14 - - - - - - - 16.7 1009.5 0.0
24/02:00pm S 8 12 - - - - - - - 16.0 1009.9 0.0
24/01:30pm S 10 14 - - - - - - - 16.2 1009.9 0.0
24/01:00pm SSW 11 17 - - - - - - - 16.0 1009.8 0.0
24/12:30pm SSW 13 17 - - - - - - - 15.7 1010.0 0.0
24/12:00pm SSW 11 20 - - - - - - - 15.6 1010.4 0.0
24/11:30am SW 11 18 - - - - - - - 15.0 1010.7 0.0
24/11:00am SW 14 21 - - - - - - - 15.0 1011.0 0.0
24/10:30am SW 11 18 - - - - - - - 14.9 1011.2 0.0
24/10:00am SSW 11 17 - - - - - - - 14.6 1011.7 0.0
24/09:30am SSW 11 17 - - - - - - - 14.3 1011.5 0.0
24/09:00am SSW 11 17 - - - - - - - 14.0 1011.1 4.4
24/08:30am SSW 13 20 - - - - - - - 13.8 1010.7 4.4
24/08:00am SSW 17 24 - - - - - - - 13.8 1010.3 4.4
24/07:30am SW 12 21 - - - - - - - 13.4 1009.9 4.4
24/07:00am SW 12 17 - - - - - - - 13.6 1010.7 4.2
24/06:30am SW 11 16 - - - - - - - 14.2 1009.8 0.6
24/06:00am SW 11 17 - - - - - - - 14.7 1009.4 0.6
24/05:30am SW 10 15 - - - - - - - 15.2 1009.3 0.6
24/05:00am SW 11 17 - - - - - - - 15.1 1009.1 0.6
24/04:30am W 2 2 - - - - - - - 15.6 1009.1 0.6
24/04:00am NW 5 6 - - - - - - - 15.6 1009.0 0.6
24/03:30am N 5 6 - - - - - - - 15.7 1008.9 0.6
24/03:00am N 5 7 - - - - - - - 15.7 1009.1 0.6
24/02:30am N 6 8 - - - - - - - 15.7 1009.3 0.6
24/02:00am N 7 10 - - - - - - - 15.7 1009.6 0.6
24/01:30am N 8 11 - - - - - - - 15.8 1009.9 0.6
24/01:00am N 8 11 - - - - - - - 15.9 1010.3 0.6
24/12:30am N 7 10 - - - - - - - 16.0 1010.8 0.6
24/12:00am N 8 11 - - - - - - - 16.1 1011.2 0.6
 
Date/Time
EST
Wind Sea
Height
m
Swell Vis
km
Cloud Weather Temp
°C
Press
MSL
hPa
Rain since
9am
mm
Dir  Spd
kts
Gust
kts
Height
m
Period
s
Dir
23/11:30pm N 8 13 - - - - - - - 16.2 1011.5 0.6
23/11:00pm NNE 11 16 - - - - - - - 16.3 1011.6 0.6
23/10:30pm NNE 12 17 - - - - - - - 16.4 1012.2 0.6
23/10:00pm NNE 11 15 - - - - - - - 16.3 1012.5 0.6
23/09:30pm NNE 11 15 - - - - - - - 16.3 1012.7 0.4
23/09:00pm NNE 11 15 - - - - - - - 16.3 1013.0 0.4
23/08:30pm N 9 13 - - - - - - - 16.4 1013.3 0.4
23/08:00pm NNE 12 17 - - - - - - - 16.3 1013.5 0.4
23/07:30pm NNE 8 11 - - - - - - - 16.0 1013.5 0.4
23/07:00pm NNE 8 11 - - - - - - - 15.9 1013.7 0.4
23/06:30pm NNE 9 13 - - - - - - - 15.7 1013.7 0.4
23/06:00pm NNE 11 16 - - - - - - Rain 15.5 1013.6 0.2
23/05:30pm NNE 14 21 - - - - - - - 16.3 1013.5 0.0
23/05:00pm NNE 10 15 - - - - - - - 16.8 1013.5 0.0
23/04:30pm NNE 11 16 - - - - - - - 16.6 1013.5 0.0
23/04:00pm NNE 11 17 - - - - - - - 16.9 1013.5 0.0
23/03:30pm NNE 13 20 - - - - - - - 16.8 1013.6 0.0
23/03:00pm NNE 13 18 - - - - - - - 17.8 1013.5 0.0
23/02:30pm NNE 15 23 - - - - - - - 19.0 1013.8 0.0
23/02:00pm N 14 20 - - - - - - - 19.3 1014.4 0.0
23/01:30pm NNE 13 18 - - - - - - - 18.6 1014.6 0.0
23/01:00pm NNE 11 17 - - - - - - - 18.8 1015.0 0.0
23/12:30pm NNE 12 18 - - - - - - - 18.4 1015.4 0.0
23/12:00pm NNE 11 16 - - - - - - - 17.9 1015.9 0.0
23/11:30am N 11 15 - - - - - - - 17.9 1016.4 0.0
23/11:00am N 11 15 - - - - - - - 18.0 1016.7 0.0
23/10:30am N 10 15 - - - - - - - 17.1 1017.2 0.0
23/10:00am N 12 18 - - - - - - - 16.4 1017.6 0.0
23/09:30am N 12 18 - - - - - - - 15.8 1017.9 0.0
23/09:00am NNE 11 17 - - - - - - - 16.0 1018.1 13.6
23/08:30am N 11 16 - - - - - - - 15.6 1018.2 13.6
23/08:00am N 9 12 - - - - - - - 15.3 1018.1 13.6
23/07:30am N 12 16 - - - - - - - 15.2 1017.9 13.6
23/07:00am N 11 18 - - - - - - - 15.1 1017.9 13.6
23/06:30am N 5 8 - - - - - - - 15.1 1017.5 13.4
23/06:00am NNE 7 9 - - - - - - - 15.0 1017.3 13.2
23/05:30am NNE 5 7 - - - - - - - 14.6 1017.1 13.2
23/05:00am NNE 5 7 - - - - - - - 14.7 1016.9 13.2
23/04:30am NNE 5 7 - - - - - - - 14.8 1016.9 13.2
23/04:00am NE 6 8 - - - - - - - 14.9 1016.6 13.2
23/03:30am NE 4 6 - - - - - - - 14.8 1016.6 13.0
23/03:00am NNE 5 6 - - - - - - - 14.5 1016.9 13.0
23/02:30am NNW 4 6 - - - - - - - 14.3 1017.2 13.0
23/02:00am N 4 6 - - - - - - - 14.5 1017.7 13.0
23/01:30am NNW 6 10 - - - - - - - 14.7 1018.0 12.8
23/01:00am NNW 5 9 - - - - - - - 14.9 1018.2 12.0
23/12:30am ENE 4 12 - - - - - - - 15.0 1018.3 11.8
23/12:00am N 2 3 - - - - - - Recent precip. 14.7 1018.7 11.6
 
Date/Time
EST
Wind Sea
Height
m
Swell Vis
km
Cloud Weather Temp
°C
Press
MSL
hPa
Rain since
9am
mm
Dir  Spd
kts
Gust
kts
Height
m
Period
s
Dir
22/11:30pm N 4 4 - - - - - - - 14.6 1018.9 11.0
22/11:00pm NNE 4 5 - - - - - - - 14.7 1019.1 11.0
22/10:30pm NNE 2 3 - - - - - - - 14.7 1019.5 11.0
22/10:00pm NNE 4 5 - - - - - - - 14.5 1019.8 11.0
22/09:30pm NNE 4 6 - - - - - - - 14.4 1019.8 11.0
22/09:00pm NNE 6 9 - - - - - - Recent precip. 14.4 1020.1 10.8
22/08:30pm NE 5 8 - - - - - - - 14.3 1020.1 10.6
22/08:00pm NNE 8 12 - - - - - - - 14.3 1020.1 10.0
22/07:30pm N 9 13 - - - - - - - 14.4 1020.0 7.6
22/07:00pm NNE 9 12 - - - - - - - 14.7 1019.8 6.2
22/06:30pm NNE 5 10 - - - - - - - 15.7 1019.4 4.4
22/06:00pm NNE 9 13 - - - - - - Recent precip. 15.4 1019.4 3.0
22/05:30pm NNE 7 11 - - - - - - - 15.5 1019.2 3.0
22/05:00pm N 6 8 - - - - - - - 15.7 1019.0 2.6
22/04:30pm N 8 12 - - - - - - - 16.2 1018.7 2.4
22/04:00pm NNE 10 15 - - - - - - - 15.9 1018.7 2.4
22/03:30pm NNE 13 21 - - - - - - - 15.5 1018.4 2.4
22/03:00pm NE 10 18 - - - - - - - 17.8 1018.4 0.6
22/02:30pm NE 11 16 - - - - - - - 17.0 1018.5 0.6
22/02:00pm NNE 17 27 - - - - - - - 16.5 1018.6 0.6
22/01:53pm NE 17 27 - - - - - - - 18.1 1018.6 0.6
22/01:30pm NE 15 21 - - - - - - - 18.1 1018.4 0.6
22/01:00pm NE 12 19 - - - - - - - 16.3 1018.9 0.6
22/12:35pm NE 15 27 - - - - - - - 16.8 1019.1 0.6
22/12:30pm NE 13 18 - - - - - - - 18.1 1019.1 0.2
22/12:00pm NE 13 21 - - - - - - - 18.3 1019.3 0.2
22/11:30am NE 11 16 - - - - - - - 17.8 1019.4 0.2
22/11:00am NE 12 18 - - - - - - - 18.9 1019.5 0.2
22/10:30am NE 11 16 - - - - - - - 17.4 1019.9 0.2
22/10:00am NE 11 17 - - - - - - - 17.8 1019.9 0.0
22/09:30am NE 10 15 - - - - - - - 17.7 1020.0 0.0
22/09:00am NE 11 16 - - - - - - - 17.7 1020.0 43.2

Other formats

Comma delimited format used in spreadsheet applications
http://www.bom.gov.au/fwo/IDN60701/IDN60701.95940.axf

JavaScript Object Notation format (JSON) in row-major order
http://www.bom.gov.au/fwo/IDN60701/IDN60701.95940.json

Data quality

Most of these data are generated automatically and are frequently updated. Quality checks on data are not normally performed. It is possible for incorrect values to appear. Refer to information at About Latest Weather Observations and please check the disclaimer before using these data.